sensor_id;sensor_type;location;lat;lon;timestamp;pressure;altitude;pressure_sealevel;temperature;humidity
34124;BME280;13153;52.316;21.166;2022-07-03T00:01:58;101105.00;;;23.15;56.71
34124;BME280;13153;52.316;21.166;2022-07-03T00:04:24;101094.31;;;23.12;56.65
34124;BME280;13153;52.316;21.166;2022-07-03T00:06:52;101095.25;;;23.11;56.88
34124;BME280;13153;52.316;21.166;2022-07-03T00:09:18;101094.38;;;23.09;56.48
34124;BME280;13153;52.316;21.166;2022-07-03T00:11:45;101098.03;;;23.03;56.68
34124;BME280;13153;52.316;21.166;2022-07-03T00:14:11;101102.50;;;23.04;56.66
34124;BME280;13153;52.316;21.166;2022-07-03T00:16:37;101090.00;;;23.00;56.70
34124;BME280;13153;52.316;21.166;2022-07-03T00:19:03;101095.38;;;23.01;56.69
34124;BME280;13153;52.316;21.166;2022-07-03T00:21:44;101096.25;;;23.02;56.75
34124;BME280;13153;52.316;21.166;2022-07-03T00:24:25;101110.56;;;23.02;56.83
34124;BME280;13153;52.316;21.166;2022-07-03T00:26:53;101105.28;;;22.96;56.57
34124;BME280;13153;52.316;21.166;2022-07-03T00:29:22;101106.19;;;22.94;56.25
34124;BME280;13153;52.316;21.166;2022-07-03T00:31:49;101099.94;;;22.93;56.47
34124;BME280;13153;52.316;21.166;2022-07-03T00:34:17;101096.38;;;22.93;56.72
34124;BME280;13153;52.316;21.166;2022-07-03T00:36:47;101099.97;;;22.90;56.59
34124;BME280;13153;52.316;21.166;2022-07-03T00:39:13;101099.97;;;22.90;56.43
34124;BME280;13153;52.316;21.166;2022-07-03T00:41:43;101095.53;;;22.88;56.46
34124;BME280;13153;52.316;21.166;2022-07-03T00:44:10;101102.72;;;22.86;56.84
34124;BME280;13153;52.316;21.166;2022-07-03T00:46:38;101097.34;;;22.86;56.89
34124;BME280;13153;52.316;21.166;2022-07-03T00:49:09;101092.84;;;22.89;56.44
34124;BME280;13153;52.316;21.166;2022-07-03T00:51:39;101093.75;;;22.88;56.81
34124;BME280;13153;52.316;21.166;2022-07-03T00:54:08;101091.03;;;22.90;56.54
34124;BME280;13153;52.316;21.166;2022-07-03T00:56:39;101077.66;;;22.87;56.75
34124;BME280;13153;52.316;21.166;2022-07-03T00:59:07;101080.34;;;22.85;56.63
34124;BME280;13153;52.316;21.166;2022-07-03T01:01:37;101080.34;;;22.85;56.61
34124;BME280;13153;52.316;21.166;2022-07-03T01:04:36;101080.41;;;22.82;56.83
34124;BME280;13153;52.316;21.166;2022-07-03T01:07:33;101077.78;;;22.74;57.04
34124;BME280;13153;52.316;21.166;2022-07-03T01:10:22;101082.22;;;22.76;56.98
34124;BME280;13153;52.316;21.166;2022-07-03T01:13:11;101077.78;;;22.73;56.78
34124;BME280;13153;52.316;21.166;2022-07-03T01:16:17;101073.34;;;22.70;57.02
34124;BME280;13153;52.316;21.166;2022-07-03T01:18:54;101077.88;;;22.65;57.27
34124;BME280;13153;52.316;21.166;2022-07-03T01:24:37;101085.06;;;22.63;57.34
34124;BME280;13153;52.316;21.166;2022-07-03T01:27:13;101079.75;;;22.59;57.59
34124;BME280;13153;52.316;21.166;2022-07-03T01:32:23;101075.22;;;22.62;57.45
34124;BME280;13153;52.316;21.166;2022-07-03T01:34:52;101080.56;;;22.65;57.44
34124;BME280;13153;52.316;21.166;2022-07-03T01:37:23;101078.78;;;22.66;57.35
34124;BME280;13153;52.316;21.166;2022-07-03T01:39:53;101075.16;;;22.68;57.25
34124;BME280;13153;52.316;21.166;2022-07-03T01:42:23;101072.50;;;22.65;57.57
34124;BME280;13153;52.316;21.166;2022-07-03T01:44:52;101064.53;;;22.61;57.60
34124;BME280;13153;52.316;21.166;2022-07-03T01:47:20;101059.16;;;22.59;57.83
34124;BME280;13153;52.316;21.166;2022-07-03T01:49:49;101056.53;;;22.56;57.46
34124;BME280;13153;52.316;21.166;2022-07-03T01:52:17;101052.97;;;22.56;57.36
34124;BME280;13153;52.316;21.166;2022-07-03T01:54:46;101047.59;;;22.54;57.55
34124;BME280;13153;52.316;21.166;2022-07-03T01:57:13;101049.47;;;22.51;57.55
34124;BME280;13153;52.316;21.166;2022-07-03T01:59:38;101050.41;;;22.48;57.61
34124;BME280;13153;52.316;21.166;2022-07-03T02:02:24;101052.16;;;22.49;57.45
34124;BME280;13153;52.316;21.166;2022-07-03T02:11:14;101040.59;;;22.44;57.32
34124;BME280;13153;52.316;21.166;2022-07-03T02:14:11;101048.75;;;22.36;57.50
34124;BME280;13153;52.316;21.166;2022-07-03T02:17:18;101047.88;;;22.34;57.76
34124;BME280;13153;52.316;21.166;2022-07-03T02:20:06;101044.34;;;22.28;57.84
34124;BME280;13153;52.316;21.166;2022-07-03T02:22:43;101039.91;;;22.25;57.69
34124;BME280;13153;52.316;21.166;2022-07-03T02:25:22;101039.03;;;22.23;57.68
34124;BME280;13153;52.316;21.166;2022-07-03T02:28:05;101038.13;;;22.26;57.69
34124;BME280;13153;52.316;21.166;2022-07-03T02:30:35;101035.50;;;22.21;57.43
34124;BME280;13153;52.316;21.166;2022-07-03T02:33:04;101040.88;;;22.18;57.22
34124;BME280;13153;52.316;21.166;2022-07-03T02:35:33;101048.13;;;22.10;57.19
34124;BME280;13153;52.316;21.166;2022-07-03T02:38:17;101056.19;;;22.08;57.14
34124;BME280;13153;52.316;21.166;2022-07-03T02:41:18;101050.78;;;22.10;57.05
34124;BME280;13153;52.316;21.166;2022-07-03T02:44:44;101044.44;;;22.20;57.07
34124;BME280;13153;52.316;21.166;2022-07-03T02:50:06;101050.16;;;22.66;55.85
34124;BME280;13153;52.316;21.166;2022-07-03T02:55:45;101049.63;;;23.08;54.53
34124;BME280;13153;52.316;21.166;2022-07-03T03:01:46;101047.56;;;23.26;53.62
34124;BME280;13153;52.316;21.166;2022-07-03T03:04:32;101045.25;;;23.62;52.97
34124;BME280;13153;52.316;21.166;2022-07-03T03:07:07;101050.97;;;23.93;51.76
34124;BME280;13153;52.316;21.166;2022-07-03T03:09:43;101050.44;;;24.22;51.04
34124;BME280;13153;52.316;21.166;2022-07-03T03:12:12;101057.25;;;24.40;50.55
34124;BME280;13153;52.316;21.166;2022-07-03T03:14:41;101054.34;;;24.52;50.36
34124;BME280;13153;52.316;21.166;2022-07-03T03:17:23;101039.50;;;24.76;49.78
34124;BME280;13153;52.316;21.166;2022-07-03T03:19:56;101044.03;;;25.14;48.83
34124;BME280;13153;52.316;21.166;2022-07-03T03:25:02;101041.69;;;25.74;47.05
34124;BME280;13153;52.316;21.166;2022-07-03T03:27:28;101040.06;;;26.01;46.47
34124;BME280;13153;52.316;21.166;2022-07-03T03:29:55;101035.88;;;26.23;46.05
34124;BME280;13153;52.316;21.166;2022-07-03T03:32:22;101033.78;;;26.35;45.50
34124;BME280;13153;52.316;21.166;2022-07-03T03:34:50;101027.91;;;26.19;45.71
34124;BME280;13153;52.316;21.166;2022-07-03T03:37:16;101032.91;;;26.34;45.25
34124;BME280;13153;52.316;21.166;2022-07-03T03:39:42;101042.09;;;26.58;44.95
34124;BME280;13153;52.316;21.166;2022-07-03T03:42:08;101036.81;;;26.84;44.22
34124;BME280;13153;52.316;21.166;2022-07-03T03:44:34;101035.09;;;27.39;43.13
34124;BME280;13153;52.316;21.166;2022-07-03T03:47:00;101028.53;;;27.74;42.28
34124;BME280;13153;52.316;21.166;2022-07-03T03:49:27;101040.28;;;28.00;41.17
34124;BME280;13153;52.316;21.166;2022-07-03T03:51:54;101034.34;;;28.40;40.33
34124;BME280;13153;52.316;21.166;2022-07-03T03:54:20;101031.47;;;28.68;40.10
34124;BME280;13153;52.316;21.166;2022-07-03T03:56:46;101032.06;;;28.76;39.60
34124;BME280;13153;52.316;21.166;2022-07-03T03:59:12;101036.94;;;29.13;39.07
34124;BME280;13153;52.316;21.166;2022-07-03T04:01:37;101032.31;;;29.38;38.17
34124;BME280;13153;52.316;21.166;2022-07-03T04:04:03;101037.72;;;29.82;37.70
34124;BME280;13153;52.316;21.166;2022-07-03T04:06:29;101029.75;;;30.40;36.82
34124;BME280;13153;52.316;21.166;2022-07-03T04:08:54;101024.44;;;31.15;35.41
34124;BME280;13153;52.316;21.166;2022-07-03T04:11:20;101019.44;;;32.12;33.75
34124;BME280;13153;52.316;21.166;2022-07-03T04:13:46;101025.16;;;33.23;31.69
34124;BME280;13153;52.316;21.166;2022-07-03T04:16:12;101031.59;;;34.43;30.03
34124;BME280;13153;52.316;21.166;2022-07-03T04:18:38;101031.47;;;35.30;28.08
34124;BME280;13153;52.316;21.166;2022-07-03T04:21:04;101038.03;;;36.21;27.30
34124;BME280;13153;52.316;21.166;2022-07-03T04:23:30;101037.41;;;37.30;26.04
34124;BME280;13153;52.316;21.166;2022-07-03T04:26:03;101045.13;;;38.31;24.90
34124;BME280;13153;52.316;21.166;2022-07-03T04:28:29;101044.72;;;38.93;24.08
34124;BME280;13153;52.316;21.166;2022-07-03T04:30:55;101044.66;;;39.49;23.06
34124;BME280;13153;52.316;21.166;2022-07-03T04:33:21;101050.59;;;40.30;22.17
34124;BME280;13153;52.316;21.166;2022-07-03T04:35:46;101056.13;;;41.11;21.86
34124;BME280;13153;52.316;21.166;2022-07-03T04:38:12;101057.31;;;41.87;20.84
34124;BME280;13153;52.316;21.166;2022-07-03T04:40:38;101057.31;;;42.45;19.52
34124;BME280;13153;52.316;21.166;2022-07-03T04:43:03;101055.53;;;43.01;19.60
34124;BME280;13153;52.316;21.166;2022-07-03T04:45:29;101058.44;;;43.54;18.82
34124;BME280;13153;52.316;21.166;2022-07-03T04:47:55;101060.88;;;43.85;18.46
34124;BME280;13153;52.316;21.166;2022-07-03T04:50:20;101052.19;;;44.23;18.01
34124;BME280;13153;52.316;21.166;2022-07-03T04:52:46;101057.13;;;44.55;18.29
34124;BME280;13153;52.316;21.166;2022-07-03T04:55:12;101050.75;;;44.63;17.66
34124;BME280;13153;52.316;21.166;2022-07-03T04:57:38;101050.38;;;44.84;17.73
34124;BME280;13153;52.316;21.166;2022-07-03T05:00:05;101056.53;;;44.95;17.28
34124;BME280;13153;52.316;21.166;2022-07-03T05:02:32;101047.13;;;45.30;17.37
34124;BME280;13153;52.316;21.166;2022-07-03T05:04:58;101045.84;;;45.83;16.60
34124;BME280;13153;52.316;21.166;2022-07-03T05:07:23;101047.75;;;45.66;16.54
34124;BME280;13153;52.316;21.166;2022-07-03T05:09:49;101053.34;;;45.91;16.41
34124;BME280;13153;52.316;21.166;2022-07-03T05:12:15;101047.59;;;45.60;16.54
34124;BME280;13153;52.316;21.166;2022-07-03T05:14:40;101050.94;;;45.96;16.46
34124;BME280;13153;52.316;21.166;2022-07-03T05:17:06;101049.19;;;46.35;16.52
34124;BME280;13153;52.316;21.166;2022-07-03T05:19:32;101051.94;;;46.60;16.19
34124;BME280;13153;52.316;21.166;2022-07-03T05:21:57;101057.81;;;46.81;15.77
34124;BME280;13153;52.316;21.166;2022-07-03T05:24:23;101061.88;;;46.54;15.42
34124;BME280;13153;52.316;21.166;2022-07-03T05:26:49;101056.34;;;44.71;16.26
34124;BME280;13153;52.316;21.166;2022-07-03T05:29:16;101058.81;;;43.87;17.81
34124;BME280;13153;52.316;21.166;2022-07-03T05:31:42;101052.66;;;44.36;17.56
34124;BME280;13153;52.316;21.166;2022-07-03T05:34:07;101059.09;;;44.63;16.92
34124;BME280;13153;52.316;21.166;2022-07-03T05:36:33;101055.97;;;44.66;17.02
34124;BME280;13153;52.316;21.166;2022-07-03T05:38:59;101054.09;;;44.23;17.10
34124;BME280;13153;52.316;21.166;2022-07-03T05:41:43;101054.13;;;44.49;17.26
34124;BME280;13153;52.316;21.166;2022-07-03T05:44:09;101051.13;;;44.68;16.91
34124;BME280;13153;52.316;21.166;2022-07-03T05:46:35;101055.94;;;44.84;16.40
34124;BME280;13153;52.316;21.166;2022-07-03T05:49:00;101045.44;;;45.03;17.22
34124;BME280;13153;52.316;21.166;2022-07-03T05:51:26;101039.47;;;45.24;16.94
34124;BME280;13153;52.316;21.166;2022-07-03T05:53:52;101042.03;;;45.76;16.19
34124;BME280;13153;52.316;21.166;2022-07-03T05:56:18;101047.59;;;45.76;16.33
34124;BME280;13153;52.316;21.166;2022-07-03T05:58:43;101047.94;;;45.89;15.71
34124;BME280;13153;52.316;21.166;2022-07-03T06:01:09;101039.94;;;45.70;15.98
34124;BME280;13153;52.316;21.166;2022-07-03T06:03:35;101040.22;;;45.51;16.57
34124;BME280;13153;52.316;21.166;2022-07-03T06:06:00;101040.09;;;45.68;16.57
34124;BME280;13153;52.316;21.166;2022-07-03T06:08:27;101042.91;;;45.93;15.87
34124;BME280;13153;52.316;21.166;2022-07-03T06:10:52;101042.22;;;45.91;15.74
34124;BME280;13153;52.316;21.166;2022-07-03T06:13:18;101044.25;;;45.06;16.38
34124;BME280;13153;52.316;21.166;2022-07-03T06:15:44;101047.19;;;45.04;16.45
34124;BME280;13153;52.316;21.166;2022-07-03T06:18:09;101048.72;;;44.21;16.63
34124;BME280;13153;52.316;21.166;2022-07-03T06:20:35;101047.72;;;43.24;17.79
34124;BME280;13153;52.316;21.166;2022-07-03T06:23:01;101049.00;;;42.92;17.54
34124;BME280;13153;52.316;21.166;2022-07-03T06:25:26;101051.84;;;43.10;18.49
34124;BME280;13153;52.316;21.166;2022-07-03T06:27:52;101041.16;;;43.42;17.12
34124;BME280;13153;52.316;21.166;2022-07-03T06:30:18;101047.41;;;43.90;17.50
34124;BME280;13153;52.316;21.166;2022-07-03T06:32:44;101051.84;;;44.70;16.55
34124;BME280;13153;52.316;21.166;2022-07-03T06:35:09;101044.03;;;44.99;16.04
34124;BME280;13153;52.316;21.166;2022-07-03T06:37:35;101050.28;;;44.24;16.80
34124;BME280;13153;52.316;21.166;2022-07-03T06:40:01;101049.91;;;44.88;16.12
34124;BME280;13153;52.316;21.166;2022-07-03T06:42:26;101042.81;;;45.44;15.62
34124;BME280;13153;52.316;21.166;2022-07-03T06:44:52;101052.66;;;45.89;15.62
34124;BME280;13153;52.316;21.166;2022-07-03T06:47:18;101044.09;;;45.74;15.50
34124;BME280;13153;52.316;21.166;2022-07-03T06:49:44;101042.59;;;46.12;15.04
34124;BME280;13153;52.316;21.166;2022-07-03T06:52:10;101050.56;;;46.72;14.70
34124;BME280;13153;52.316;21.166;2022-07-03T06:54:37;101046.91;;;47.19;14.47
34124;BME280;13153;52.316;21.166;2022-07-03T06:57:13;101054.22;;;47.51;14.16
34124;BME280;13153;52.316;21.166;2022-07-03T06:59:39;101038.75;;;47.01;13.82
34124;BME280;13153;52.316;21.166;2022-07-03T07:02:04;101041.50;;;46.29;14.19
34124;BME280;13153;52.316;21.166;2022-07-03T07:04:30;101042.13;;;45.42;15.45
34124;BME280;13153;52.316;21.166;2022-07-03T07:06:56;101034.50;;;45.52;15.17
34124;BME280;13153;52.316;21.166;2022-07-03T07:09:22;101036.47;;;45.84;15.29
34124;BME280;13153;52.316;21.166;2022-07-03T07:11:47;101025.31;;;46.57;14.84
34124;BME280;13153;52.316;21.166;2022-07-03T07:14:13;101023.25;;;46.98;14.65
34124;BME280;13153;52.316;21.166;2022-07-03T07:16:39;101020.84;;;47.88;13.44
34124;BME280;13153;52.316;21.166;2022-07-03T07:19:05;101018.81;;;47.82;12.81
34124;BME280;13153;52.316;21.166;2022-07-03T07:21:30;101009.41;;;47.75;13.16
34124;BME280;13153;52.316;21.166;2022-07-03T07:23:56;101000.56;;;48.09;13.60
34124;BME280;13153;52.316;21.166;2022-07-03T07:26:22;101005.72;;;48.20;13.78
34124;BME280;13153;52.316;21.166;2022-07-03T07:28:47;100989.00;;;48.50;13.71
34124;BME280;13153;52.316;21.166;2022-07-03T07:31:13;100993.53;;;48.51;13.88
34124;BME280;13153;52.316;21.166;2022-07-03T07:33:39;100992.50;;;48.14;13.64
34124;BME280;13153;52.316;21.166;2022-07-03T07:36:05;100997.88;;;48.53;13.77
34124;BME280;13153;52.316;21.166;2022-07-03T07:38:30;100995.66;;;48.78;13.16
34124;BME280;13153;52.316;21.166;2022-07-03T07:40:56;100982.47;;;48.05;13.36
34124;BME280;13153;52.316;21.166;2022-07-03T07:43:22;100987.06;;;47.98;13.57
34124;BME280;13153;52.316;21.166;2022-07-03T07:45:47;100986.44;;;47.42;13.95
34124;BME280;13153;52.316;21.166;2022-07-03T07:48:13;100984.66;;;47.49;13.72
34124;BME280;13153;52.316;21.166;2022-07-03T07:50:39;100978.56;;;45.71;14.45
34124;BME280;13153;52.316;21.166;2022-07-03T07:53:06;100975.41;;;46.23;14.40
34124;BME280;13153;52.316;21.166;2022-07-03T07:55:31;100973.59;;;47.02;14.30
34124;BME280;13153;52.316;21.166;2022-07-03T07:57:57;100972.94;;;47.31;14.27
34124;BME280;13153;52.316;21.166;2022-07-03T08:00:23;100970.69;;;46.48;14.81
34124;BME280;13153;52.316;21.166;2022-07-03T08:02:48;100973.97;;;45.30;14.87
34124;BME280;13153;52.316;21.166;2022-07-03T08:05:34;100967.34;;;43.41;16.53
34124;BME280;13153;52.316;21.166;2022-07-03T08:08:16;100952.84;;;41.81;17.74
34124;BME280;13153;52.316;21.166;2022-07-03T08:10:46;100947.75;;;40.79;18.58
34124;BME280;13153;52.316;21.166;2022-07-03T08:13:14;100950.22;;;39.79;20.10
34124;BME280;13153;52.316;21.166;2022-07-03T08:15:41;100949.13;;;38.84;20.76
34124;BME280;13153;52.316;21.166;2022-07-03T08:18:08;100939.41;;;37.78;22.04
34124;BME280;13153;52.316;21.166;2022-07-03T08:20:36;100942.66;;;37.24;23.75
34124;BME280;13153;52.316;21.166;2022-07-03T08:23:03;100937.81;;;36.42;23.34
34124;BME280;13153;52.316;21.166;2022-07-03T08:25:29;100938.59;;;35.54;23.72
34124;BME280;13153;52.316;21.166;2022-07-03T08:27:56;100936.31;;;34.65;26.06
34124;BME280;13153;52.316;21.166;2022-07-03T08:30:23;100936.19;;;34.24;26.60
34124;BME280;13153;52.316;21.166;2022-07-03T08:32:52;100930.41;;;33.86;27.21
34124;BME280;13153;52.316;21.166;2022-07-03T08:35:18;100931.00;;;33.91;28.07
34124;BME280;13153;52.316;21.166;2022-07-03T08:37:44;100927.31;;;33.92;27.60
34124;BME280;13153;52.316;21.166;2022-07-03T08:40:15;100920.28;;;33.88;28.21
34124;BME280;13153;52.316;21.166;2022-07-03T08:42:54;100923.38;;;33.82;27.04
34124;BME280;13153;52.316;21.166;2022-07-03T08:45:21;100923.28;;;33.84;28.38
34124;BME280;13153;52.316;21.166;2022-07-03T08:47:50;100913.97;;;33.72;27.27
34124;BME280;13153;52.316;21.166;2022-07-03T08:50:19;100913.72;;;33.46;28.15
34124;BME280;13153;52.316;21.166;2022-07-03T08:52:47;100901.88;;;33.16;27.42
34124;BME280;13153;52.316;21.166;2022-07-03T08:55:15;100898.88;;;32.91;28.61
34124;BME280;13153;52.316;21.166;2022-07-03T08:57:43;100905.25;;;32.74;28.40
34124;BME280;13153;52.316;21.166;2022-07-03T09:00:14;100905.25;;;32.58;28.96
34124;BME280;13153;52.316;21.166;2022-07-03T09:02:47;100896.53;;;32.52;28.73
34124;BME280;13153;52.316;21.166;2022-07-03T09:05:16;100897.56;;;32.00;27.85
34124;BME280;13153;52.316;21.166;2022-07-03T09:07:44;100895.91;;;31.80;28.13
34124;BME280;13153;52.316;21.166;2022-07-03T09:10:16;100895.59;;;31.17;28.65
34124;BME280;13153;52.316;21.166;2022-07-03T09:12:46;100887.25;;;31.20;29.51
34124;BME280;13153;52.316;21.166;2022-07-03T09:15:12;100884.50;;;31.03;30.28
34124;BME280;13153;52.316;21.166;2022-07-03T09:17:38;100892.16;;;30.95;30.09
34124;BME280;13153;52.316;21.166;2022-07-03T09:20:06;100886.91;;;31.09;30.80
34124;BME280;13153;52.316;21.166;2022-07-03T09:22:35;100892.94;;;31.16;30.35
34124;BME280;13153;52.316;21.166;2022-07-03T09:25:13;100891.44;;;30.92;29.99
34124;BME280;13153;52.316;21.166;2022-07-03T09:27:52;100881.09;;;30.81;30.09
34124;BME280;13153;52.316;21.166;2022-07-03T09:30:19;100885.88;;;30.38;30.58
34124;BME280;13153;52.316;21.166;2022-07-03T09:32:48;100882.03;;;30.23;31.11
34124;BME280;13153;52.316;21.166;2022-07-03T09:35:25;100886.22;;;30.31;31.69
34124;BME280;13153;52.316;21.166;2022-07-03T09:38:04;100878.63;;;30.58;33.62
34124;BME280;13153;52.316;21.166;2022-07-03T09:40:53;100876.16;;;30.89;32.12
34124;BME280;13153;52.316;21.166;2022-07-03T09:43:25;100880.31;;;31.15;31.51
34124;BME280;13153;52.316;21.166;2022-07-03T09:46:01;100880.53;;;31.28;31.83
34124;BME280;13153;52.316;21.166;2022-07-03T09:48:35;100873.09;;;31.31;30.98
34124;BME280;13153;52.316;21.166;2022-07-03T09:51:24;100870.53;;;31.28;30.96
34124;BME280;13153;52.316;21.166;2022-07-03T09:54:02;100866.47;;;31.37;31.36
34124;BME280;13153;52.316;21.166;2022-07-03T09:56:36;100869.06;;;31.04;31.18
34124;BME280;13153;52.316;21.166;2022-07-03T09:59:11;100877.44;;;30.99;32.59
34124;BME280;13153;52.316;21.166;2022-07-03T10:01:45;100870.75;;;30.70;31.58
34124;BME280;13153;52.316;21.166;2022-07-03T10:04:22;100867.69;;;30.59;32.51
34124;BME280;13153;52.316;21.166;2022-07-03T10:06:59;100871.25;;;30.78;33.53
34124;BME280;13153;52.316;21.166;2022-07-03T10:09:34;100865.69;;;30.99;34.01
34124;BME280;13153;52.316;21.166;2022-07-03T10:12:02;100856.94;;;31.28;33.83
34124;BME280;13153;52.316;21.166;2022-07-03T10:14:32;100859.75;;;31.44;33.03
34124;BME280;13153;52.316;21.166;2022-07-03T10:16:59;100851.19;;;31.51;32.32
34124;BME280;13153;52.316;21.166;2022-07-03T10:19:29;100853.66;;;31.39;31.53
34124;BME280;13153;52.316;21.166;2022-07-03T10:22:02;100844.63;;;31.21;31.18
34124;BME280;13153;52.316;21.166;2022-07-03T10:24:31;100846.13;;;31.09;31.39
34124;BME280;13153;52.316;21.166;2022-07-03T10:26:59;100847.00;;;31.10;32.76
34124;BME280;13153;52.316;21.166;2022-07-03T10:29:27;100846.56;;;31.19;33.13
34124;BME280;13153;52.316;21.166;2022-07-03T10:31:53;100839.72;;;31.10;33.83
34124;BME280;13153;52.316;21.166;2022-07-03T10:34:22;100842.25;;;30.96;32.72
34124;BME280;13153;52.316;21.166;2022-07-03T10:37:01;100839.59;;;30.77;32.30
34124;BME280;13153;52.316;21.166;2022-07-03T10:40:05;100835.81;;;30.44;31.89
34124;BME280;13153;52.316;21.166;2022-07-03T10:43:04;100830.06;;;30.50;33.75
34124;BME280;13153;52.316;21.166;2022-07-03T10:46:17;100830.34;;;30.63;34.22
34124;BME280;13153;52.316;21.166;2022-07-03T10:51:25;100818.53;;;31.00;33.35
34124;BME280;13153;52.316;21.166;2022-07-03T10:54:31;100819.16;;;31.05;31.71
34124;BME280;13153;52.316;21.166;2022-07-03T11:02:50;100807.34;;;31.06;32.85
34124;BME280;13153;52.316;21.166;2022-07-03T11:05:19;100812.94;;;31.03;34.05
34124;BME280;13153;52.316;21.166;2022-07-03T11:13:05;100805.69;;;30.67;34.50
34124;BME280;13153;52.316;21.166;2022-07-03T11:26:20;100793.75;;;31.23;32.91
34124;BME280;13153;52.316;21.166;2022-07-03T11:41:20;100778.97;;;31.62;33.69
34124;BME280;13153;52.316;21.166;2022-07-03T11:43:52;100774.09;;;31.18;33.04
34124;BME280;13153;52.316;21.166;2022-07-03T11:46:20;100776.69;;;30.85;32.62
34124;BME280;13153;52.316;21.166;2022-07-03T11:48:46;100780.16;;;30.52;33.44
34124;BME280;13153;52.316;21.166;2022-07-03T11:51:12;100771.94;;;30.54;33.42
34124;BME280;13153;52.316;21.166;2022-07-03T11:53:39;100762.22;;;30.67;34.49
34124;BME280;13153;52.316;21.166;2022-07-03T11:58:54;100763.81;;;30.71;33.39
34124;BME280;13153;52.316;21.166;2022-07-03T12:01:39;100770.03;;;30.73;32.67
34124;BME280;13153;52.316;21.166;2022-07-03T12:04:20;100750.00;;;30.93;32.74
34124;BME280;13153;52.316;21.166;2022-07-03T12:06:56;100751.59;;;30.97;33.84
34124;BME280;13153;52.316;21.166;2022-07-03T12:09:34;100751.13;;;30.89;33.75
34124;BME280;13153;52.316;21.166;2022-07-03T12:12:09;100755.97;;;30.65;34.79
34124;BME280;13153;52.316;21.166;2022-07-03T12:14:49;100762.44;;;30.63;32.78
34124;BME280;13153;52.316;21.166;2022-07-03T12:17:21;100751.84;;;30.58;32.37
34124;BME280;13153;52.316;21.166;2022-07-03T12:19:55;100736.41;;;30.59;32.40
34124;BME280;13153;52.316;21.166;2022-07-03T12:22:36;100748.78;;;30.81;32.73
34124;BME280;13153;52.316;21.166;2022-07-03T12:25:12;100743.94;;;30.88;33.46
34124;BME280;13153;52.316;21.166;2022-07-03T12:27:41;100740.00;;;30.94;31.49
34124;BME280;13153;52.316;21.166;2022-07-03T12:30:18;100738.13;;;31.13;32.52
34124;BME280;13153;52.316;21.166;2022-07-03T12:32:46;100740.53;;;31.35;33.03
34124;BME280;13153;52.316;21.166;2022-07-03T12:35:12;100738.03;;;31.47;32.57
34124;BME280;13153;52.316;21.166;2022-07-03T12:37:41;100741.13;;;31.57;32.64
34124;BME280;13153;52.316;21.166;2022-07-03T12:40:09;100742.81;;;31.77;32.56
34124;BME280;13153;52.316;21.166;2022-07-03T12:42:53;100738.25;;;31.60;31.88
34124;BME280;13153;52.316;21.166;2022-07-03T12:45:26;100737.47;;;31.58;32.36
34124;BME280;13153;52.316;21.166;2022-07-03T12:48:01;100737.72;;;31.53;32.64
34124;BME280;13153;52.316;21.166;2022-07-03T12:50:48;100730.50;;;31.52;32.29
34124;BME280;13153;52.316;21.166;2022-07-03T12:53:31;100734.47;;;31.63;33.17
34124;BME280;13153;52.316;21.166;2022-07-03T12:56:07;100741.88;;;31.43;33.75
34124;BME280;13153;52.316;21.166;2022-07-03T12:58:40;100731.81;;;31.45;33.43
34124;BME280;13153;52.316;21.166;2022-07-03T13:01:33;100739.59;;;30.84;33.67
34124;BME280;13153;52.316;21.166;2022-07-03T13:03:59;100732.00;;;30.73;34.40
34124;BME280;13153;52.316;21.166;2022-07-03T13:06:26;100735.44;;;30.77;34.34
34124;BME280;13153;52.316;21.166;2022-07-03T13:09:04;100732.72;;;30.94;34.95
34124;BME280;13153;52.316;21.166;2022-07-03T13:14:14;100724.09;;;30.86;33.70
34124;BME280;13153;52.316;21.166;2022-07-03T13:16:47;100730.81;;;30.79;34.85
34124;BME280;13153;52.316;21.166;2022-07-03T13:19:17;100714.03;;;30.71;34.81
34124;BME280;13153;52.316;21.166;2022-07-03T13:21:43;100718.72;;;30.67;35.17
34124;BME280;13153;52.316;21.166;2022-07-03T13:24:11;100721.59;;;30.64;35.11
34124;BME280;13153;52.316;21.166;2022-07-03T13:26:37;100717.47;;;30.74;34.82
34124;BME280;13153;52.316;21.166;2022-07-03T13:29:03;100718.53;;;30.36;35.30
34124;BME280;13153;52.316;21.166;2022-07-03T13:31:30;100712.84;;;30.59;34.88
34124;BME280;13153;52.316;21.166;2022-07-03T13:33:57;100707.22;;;30.62;35.34
34124;BME280;13153;52.316;21.166;2022-07-03T13:36:26;100704.47;;;30.45;35.20
34124;BME280;13153;52.316;21.166;2022-07-03T13:38:52;100698.53;;;30.73;35.06
34124;BME280;13153;52.316;21.166;2022-07-03T13:41:17;100697.00;;;30.84;34.31
34124;BME280;13153;52.316;21.166;2022-07-03T13:43:45;100698.75;;;30.85;34.59
34124;BME280;13153;52.316;21.166;2022-07-03T13:46:11;100697.41;;;30.77;34.90
34124;BME280;13153;52.316;21.166;2022-07-03T13:48:37;100694.28;;;30.67;35.77
34124;BME280;13153;52.316;21.166;2022-07-03T13:51:03;100689.97;;;30.63;34.38
34124;BME280;13153;52.316;21.166;2022-07-03T13:53:28;100686.81;;;30.36;35.79
34124;BME280;13153;52.316;21.166;2022-07-03T13:55:56;100677.44;;;30.25;36.55
34124;BME280;13153;52.316;21.166;2022-07-03T13:58:24;100693.59;;;30.28;36.55
34124;BME280;13153;52.316;21.166;2022-07-03T14:00:50;100684.66;;;30.07;37.06
34124;BME280;13153;52.316;21.166;2022-07-03T14:03:16;100691.38;;;30.00;37.34
34124;BME280;13153;52.316;21.166;2022-07-03T14:05:42;100689.59;;;29.99;36.91